Time;durP1;ratioP1;P1;durP2;ratioP2;P2;SDS_P1;SDS_P2;PMS_P1;PMS_P2;Temp;Humidity;BMP_temperature;BMP_pressure;BME280_temperature;BME280_humidity;BME280_pressure;Samples;Min_cycle;Max_cycle;Signal;HPM_P1;HPM_P2
2023/03/19 00:00:44;;;;;;;;;;;;;;;9.91;100.00;99937.13;5082921;28;19943;-71
2023/03/19 00:03:09;;;;;;;;;;;;;;;9.89;100.00;99946.16;5085239;28;19959;-72
2023/03/19 00:05:35;;;;;;;;;;;;;;;9.91;100.00;99942.41;5068571;28;19920;-72
2023/03/19 00:08:00;;;;;;;;;;;;;;;9.89;100.00;99941.72;5081909;28;19920;-72
2023/03/19 00:10:26;;;;;;;;;;;;;;;9.78;100.00;99941.75;5084680;28;19928;-72
2023/03/19 00:12:51;;;;;;;;;;;;;;;9.71;100.00;99943.25;5083379;28;19920;-71
2023/03/19 00:15:17;;;;;;;;;;;;;;;9.64;100.00;99942.09;5085819;28;19920;-71
2023/03/19 00:17:43;;;;;;;;;;;;;;;9.44;100.00;99936.66;5082984;28;19973;-72
2023/03/19 00:20:10;;;;;;;;;;;;;;;9.18;100.00;99935.31;5085877;28;19919;-72
2023/03/19 00:22:35;;;;;;;;;;;;;;;9.18;100.00;99935.31;5082999;28;19925;-72
2023/03/19 00:25:01;;;;;;;;;;;;;;;9.02;100.00;99940.13;5086058;28;20002;-72
2023/03/19 00:27:26;;;;;;;;;;;;;;;8.92;100.00;99939.22;5081885;28;19920;-71
2023/03/19 00:29:51;;;;;;;;;;;;;;;8.93;100.00;99940.91;5082690;28;20394;-72
2023/03/19 00:32:17;;;;;;;;;;;;;;;8.89;100.00;99939.47;5083200;28;19920;-72
2023/03/19 00:34:43;;;;;;;;;;;;;;;8.97;100.00;99934.41;5085264;28;20437;-71
2023/03/19 00:37:08;;;;;;;;;;;;;;;9.04;100.00;99928.53;5081609;28;19920;-71
2023/03/19 00:39:34;;;;;;;;;;;;;;;9.08;100.00;99934.38;5086048;28;19928;-72
2023/03/19 00:42:00;;;;;;;;;;;;;;;9.20;100.00;99927.28;5068083;28;20036;-72
2023/03/19 00:44:25;;;;;;;;;;;;;;;9.18;100.00;99924.81;5085192;28;19981;-71
2023/03/19 00:46:51;;;;;;;;;;;;;;;9.20;100.00;99917.59;5079223;28;19928;-72
2023/03/19 00:49:16;;;;;;;;;;;;;;;9.19;100.00;99915.91;5070180;28;19920;-72
2023/03/19 00:51:44;;;;;;;;;;;;;;;9.19;100.00;99915.09;5065995;28;19942;-71
2023/03/19 00:54:11;;;;;;;;;;;;;;;9.18;100.00;99913.44;5084901;28;19971;-72
2023/03/19 00:56:36;;;;;;;;;;;;;;;9.12;100.00;99904.22;5082775;28;20315;-72
2023/03/19 00:59:02;;;;;;;;;;;;;;;9.16;100.00;99917.97;5068543;28;19954;-72
2023/03/19 01:01:28;;;;;;;;;;;;;;;9.13;100.00;99920.88;5086633;28;19973;-72
2023/03/19 01:03:53;;;;;;;;;;;;;;;9.22;100.00;99915.69;5090277;28;19927;-72
2023/03/19 01:06:19;;;;;;;;;;;;;;;9.13;100.00;99908.50;5087369;28;19960;-72
2023/03/19 01:08:44;;;;;;;;;;;;;;;9.17;100.00;99907.31;5070446;28;19924;-70
2023/03/19 01:11:13;;;;;;;;;;;;;;;9.09;100.00;99907.09;5088470;28;19924;-73
2023/03/19 01:13:38;;;;;;;;;;;;;;;9.07;100.00;99911.69;5065770;28;20181;-72
2023/03/19 01:16:04;;;;;;;;;;;;;;;8.97;100.00;99918.63;5064515;28;20007;-72
2023/03/19 01:18:30;;;;;;;;;;;;;;;8.92;100.00;99918.16;5072779;28;19925;-71
2023/03/19 01:20:57;;;;;;;;;;;;;;;8.80;100.00;99919.13;5065589;28;19924;-73
2023/03/19 01:23:23;;;;;;;;;;;;;;;8.87;100.00;99915.06;5066278;28;20401;-72
2023/03/19 01:25:49;;;;;;;;;;;;;;;8.74;100.00;99909.09;5068219;28;19920;-72
2023/03/19 01:28:14;;;;;;;;;;;;;;;8.51;100.00;99893.34;5067011;28;19928;-72
2023/03/19 01:30:40;;;;;;;;;;;;;;;8.37;100.00;99900.66;5064136;28;19925;-74
2023/03/19 01:33:44;;;;;;;;;;;;;;;8.24;100.00;99903.41;5009789;28;20314;-72
2023/03/19 01:36:15;;;;;;;;;;;;;;;8.23;100.00;99899.94;5011546;28;20536;-72
2023/03/19 01:39:07;;;;;;;;;;;;;;;8.29;100.00;99901.25;5009722;28;20294;-73
2023/03/19 01:41:33;;;;;;;;;;;;;;;8.41;100.00;99902.94;4991976;28;19922;-72
2023/03/19 01:44:23;;;;;;;;;;;;;;;8.44;100.00;99905.31;4992936;28;19981;-73
2023/03/19 01:47:10;;;;;;;;;;;;;;;8.42;100.00;99898.53;5008921;28;19921;-72
2023/03/19 01:49:57;;;;;;;;;;;;;;;8.36;100.00;99893.75;5010370;28;20007;-72
2023/03/19 01:52:24;;;;;;;;;;;;;;;8.32;100.00;99893.13;5011116;28;19968;-71
2023/03/19 01:55:08;;;;;;;;;;;;;;;8.33;100.00;99889.53;4994056;28;19933;-72
2023/03/19 01:58:06;;;;;;;;;;;;;;;8.38;100.00;99891.81;4983764;28;20103;-72
2023/03/19 02:00:52;;;;;;;;;;;;;;;8.41;100.00;99886.31;4977946;28;20622;-72
2023/03/19 02:03:18;;;;;;;;;;;;;;;8.46;100.00;99882.38;4991991;28;19926;-73
2023/03/19 02:05:58;;;;;;;;;;;;;;;8.23;100.00;99884.16;5065833;28;19957;-72
2023/03/19 02:08:24;;;;;;;;;;;;;;;8.33;100.00;99883.44;5091129;28;19916;-72
2023/03/19 02:10:52;;;;;;;;;;;;;;;8.42;100.00;99878.31;5062945;28;20392;-72
2023/03/19 02:13:17;;;;;;;;;;;;;;;8.48;100.00;99883.06;5076549;28;19916;-71
2023/03/19 02:15:43;;;;;;;;;;;;;;;8.49;100.00;99887.38;5084841;28;19916;-71
2023/03/19 02:18:09;;;;;;;;;;;;;;;8.51;100.00;99882.84;5085501;28;19969;-72
2023/03/19 02:20:36;;;;;;;;;;;;;;;8.49;100.00;99884.75;5069385;28;20399;-71
2023/03/19 02:23:04;;;;;;;;;;;;;;;8.25;100.00;99875.31;5067078;28;20006;-71
2023/03/19 02:25:50;;;;;;;;;;;;;;;8.19;100.00;99876.59;5082420;28;19920;-71
2023/03/19 02:28:18;;;;;;;;;;;;;;;8.17;100.00;99889.03;5057924;28;20376;-71
2023/03/19 02:30:45;;;;;;;;;;;;;;;8.05;100.00;99882.13;5065461;28;19961;-71
2023/03/19 02:33:15;;;;;;;;;;;;;;;8.07;100.00;99885.47;5087845;28;19923;-71
2023/03/19 02:35:41;;;;;;;;;;;;;;;7.99;100.00;99893.09;5068199;28;19995;-72
2023/03/19 02:38:07;;;;;;;;;;;;;;;8.02;100.00;99893.69;5067637;28;19927;-72
2023/03/19 02:40:35;;;;;;;;;;;;;;;8.05;100.00;99890.00;5066796;28;19912;-71
2023/03/19 02:43:01;;;;;;;;;;;;;;;7.95;100.00;99899.56;5086870;28;20014;-72
2023/03/19 02:45:27;;;;;;;;;;;;;;;7.95;100.00;99899.56;5067719;28;20016;-73
2023/03/19 02:47:52;;;;;;;;;;;;;;;7.98;100.00;99905.41;5087708;28;19927;-72
2023/03/19 02:50:18;;;;;;;;;;;;;;;8.06;100.00;99902.19;5083951;28;20023;-72
2023/03/19 02:52:43;;;;;;;;;;;;;;;7.99;100.00;99917.59;5087599;28;19967;-72
2023/03/19 02:55:09;;;;;;;;;;;;;;;7.89;100.00;99908.75;5083895;28;19917;-71
2023/03/19 02:57:34;;;;;;;;;;;;;;;7.98;100.00;99904.56;5069986;28;19916;-71
2023/03/19 03:00:00;;;;;;;;;;;;;;;8.02;100.00;99901.56;5083333;28;20725;-72
2023/03/19 03:02:26;;;;;;;;;;;;;;;8.07;100.00;99906.50;5071760;28;19923;-71
2023/03/19 03:04:51;;;;;;;;;;;;;;;8.08;100.00;99906.34;5085054;28;19966;-71
2023/03/19 03:07:16;;;;;;;;;;;;;;;8.08;100.00;99901.09;5086110;28;19931;-72
2023/03/19 03:09:42;;;;;;;;;;;;;;;7.84;100.00;99910.84;5064740;28;19923;-69
2023/03/19 03:12:08;;;;;;;;;;;;;;;7.70;100.00;99906.66;5086619;28;19916;-71
2023/03/19 03:14:34;;;;;;;;;;;;;;;7.63;100.00;99923.00;5081207;28;19923;-71
2023/03/19 03:17:00;;;;;;;;;;;;;;;7.58;100.00;99923.34;5068410;28;19997;-71
2023/03/19 03:19:25;;;;;;;;;;;;;;;7.38;100.00;99929.22;5068379;28;19919;-71
2023/03/19 03:21:51;;;;;;;;;;;;;;;7.29;100.00;99927.31;5084198;28;19922;-72
2023/03/19 03:24:20;;;;;;;;;;;;;;;7.40;100.00;99919.47;5082970;28;20410;-71
2023/03/19 03:26:45;;;;;;;;;;;;;;;7.51;100.00;99916.88;5070715;28;20000;-72
2023/03/19 03:29:10;;;;;;;;;;;;;;;7.48;100.00;99911.84;5082718;28;19916;-71
2023/03/19 03:31:36;;;;;;;;;;;;;;;7.47;100.00;99914.59;5086697;28;20395;-72
2023/03/19 03:34:01;;;;;;;;;;;;;;;7.24;100.00;99914.53;5082966;28;19966;-72
2023/03/19 03:36:27;;;;;;;;;;;;;;;7.29;100.00;99911.56;5081947;28;19995;-71
2023/03/19 03:38:54;;;;;;;;;;;;;;;7.36;100.00;99904.91;5082889;28;19916;-72
2023/03/19 03:41:19;;;;;;;;;;;;;;;7.39;100.00;99907.28;5086318;28;19924;-72
2023/03/19 03:43:45;;;;;;;;;;;;;;;7.37;100.00;99917.06;5084542;28;20376;-71
2023/03/19 03:46:11;;;;;;;;;;;;;;;7.28;100.00;99915.97;5084619;28;19916;-71
2023/03/19 03:48:36;;;;;;;;;;;;;;;7.33;100.00;99918.25;5064295;28;19924;-71
2023/03/19 03:51:03;;;;;;;;;;;;;;;7.33;100.00;99913.00;5085786;28;20386;-71
2023/03/19 03:53:28;;;;;;;;;;;;;;;7.35;100.00;99913.72;5069088;28;19915;-72
2023/03/19 03:55:54;;;;;;;;;;;;;;;7.40;100.00;99914.22;5083447;28;20339;-73
2023/03/19 03:58:23;;;;;;;;;;;;;;;7.43;100.00;99919.22;5064501;28;19926;-73
2023/03/19 04:00:49;;;;;;;;;;;;;;;7.49;100.00;99907.44;5086466;28;20369;-74
2023/03/19 04:03:16;;;;;;;;;;;;;;;7.47;100.00;99920.69;5082596;28;19967;-73
2023/03/19 04:05:42;;;;;;;;;;;;;;;7.47;100.00;99925.09;5096059;28;19942;-72
2023/03/19 04:08:07;;;;;;;;;;;;;;;7.48;100.00;99927.59;5067456;28;19939;-71
2023/03/19 04:10:35;;;;;;;;;;;;;;;7.50;100.00;99924.88;5066793;28;19916;-71
2023/03/19 04:13:01;;;;;;;;;;;;;;;7.51;100.00;99916.88;5081879;28;19920;-70
2023/03/19 04:15:29;;;;;;;;;;;;;;;7.50;100.00;99923.06;5091623;28;20284;-72
2023/03/19 04:17:56;;;;;;;;;;;;;;;7.53;100.00;99930.75;5097153;28;19945;-72
2023/03/19 04:20:22;;;;;;;;;;;;;;;7.49;100.00;99921.41;5086458;28;19926;-72
2023/03/19 04:22:47;;;;;;;;;;;;;;;7.56;100.00;99927.88;5096807;28;19916;-72
2023/03/19 04:25:13;;;;;;;;;;;;;;;7.62;100.00;99930.03;5085567;28;20273;-72
2023/03/19 04:27:39;;;;;;;;;;;;;;;7.59;100.00;99930.28;5067332;28;19919;-72
2023/03/19 04:30:06;;;;;;;;;;;;;;;7.59;100.00;99925.03;5068713;28;20334;-72
2023/03/19 04:32:32;;;;;;;;;;;;;;;7.63;100.00;99920.38;5068272;28;19912;-72
2023/03/19 04:34:58;;;;;;;;;;;;;;;7.65;100.00;99929.81;5067788;28;19920;-70
2023/03/19 04:37:23;;;;;;;;;;;;;;;7.64;100.00;99930.78;5086333;28;19958;-72
2023/03/19 04:39:50;;;;;;;;;;;;;;;7.61;100.00;99915.22;5071595;28;19920;-72
2023/03/19 04:42:16;;;;;;;;;;;;;;;7.63;100.00;99913.34;5068215;28;20057;-72
2023/03/19 04:44:51;;;;;;;;;;;;;;;7.66;100.00;99920.13;5089094;28;19971;-72
2023/03/19 04:47:17;;;;;;;;;;;;;;;7.60;100.00;99916.19;5086275;28;20299;-73
2023/03/19 04:49:52;;;;;;;;;;;;;;;7.32;100.00;99917.41;5068123;28;20367;-72
2023/03/19 04:52:19;;;;;;;;;;;;;;;7.42;100.00;99930.72;5069451;28;20061;-72
2023/03/19 04:54:45;;;;;;;;;;;;;;;7.35;100.00;99927.69;5069897;28;19971;-73
2023/03/19 04:57:11;;;;;;;;;;;;;;;7.38;100.00;99931.88;5088214;28;20681;-72
2023/03/19 04:59:39;;;;;;;;;;;;;;;7.19;100.00;99936.78;5070498;28;19916;-73
2023/03/19 05:02:05;;;;;;;;;;;;;;;7.19;100.00;99932.38;5068408;28;19969;-73
2023/03/19 05:04:32;;;;;;;;;;;;;;;7.22;100.00;99931.31;5071803;28;19977;-72
2023/03/19 05:07:04;;;;;;;;;;;;;;;7.18;100.00;99940.38;5086712;28;19920;-73
2023/03/19 05:09:30;;;;;;;;;;;;;;;7.19;100.00;99935.00;5068019;28;19920;-72
2023/03/19 05:11:56;;;;;;;;;;;;;;;7.15;100.00;99933.56;5092649;28;19979;-73
2023/03/19 05:14:22;;;;;;;;;;;;;;;7.15;100.00;99940.59;5065258;28;19931;-72
2023/03/19 05:17:10;;;;;;;;;;;;;;;7.17;100.00;99925.56;5059945;28;19967;-71
2023/03/19 05:19:56;;;;;;;;;;;;;;;7.20;100.00;99922.72;5064491;28;19955;-73
2023/03/19 05:22:22;;;;;;;;;;;;;;;7.14;100.00;99925.78;5065379;28;19955;-70
2023/03/19 05:24:48;;;;;;;;;;;;;;;7.16;100.00;99931.78;5067625;28;20377;-72
2023/03/19 05:27:13;;;;;;;;;;;;;;;7.17;100.00;99941.31;5067611;28;19920;-72
2023/03/19 05:29:48;;;;;;;;;;;;;;;7.13;100.00;99942.50;5064393;28;20314;-72
2023/03/19 05:32:22;;;;;;;;;;;;;;;7.02;100.00;99939.78;5063971;28;19924;-73
2023/03/19 05:34:48;;;;;;;;;;;;;;;6.96;100.00;99941.91;5066303;28;19924;-72
2023/03/19 05:37:15;;;;;;;;;;;;;;;6.89;100.00;99951.16;5063790;28;19917;-73
2023/03/19 05:39:45;;;;;;;;;;;;;;;6.76;100.00;99955.63;5081458;28;19955;-72
2023/03/19 05:42:11;;;;;;;;;;;;;;;6.51;100.00;99955.69;5063642;28;20007;-73
2023/03/19 05:44:36;;;;;;;;;;;;;;;6.31;100.00;99961.44;5068096;28;19916;-73
2023/03/19 05:47:15;;;;;;;;;;;;;;;6.11;100.00;99968.94;5065929;28;19932;-74
2023/03/19 05:49:46;;;;;;;;;;;;;;;6.14;100.00;99973.94;5053437;28;19944;-70
2023/03/19 05:52:12;;;;;;;;;;;;;;;6.18;100.00;99984.22;5066641;28;20088;-73
2023/03/19 05:54:38;;;;;;;;;;;;;;;6.10;100.00;99977.72;5066494;28;20011;-73
2023/03/19 05:57:26;;;;;;;;;;;;;;;6.21;100.00;99978.75;5058591;28;19924;-72
2023/03/19 06:00:01;;;;;;;;;;;;;;;6.22;100.00;99981.28;5063678;28;19973;-72
2023/03/19 06:02:33;;;;;;;;;;;;;;;6.30;100.00;99973.75;5069444;28;19916;-73
2023/03/19 06:05:18;;;;;;;;;;;;;;;6.32;100.00;99973.63;5069191;28;19956;-72
2023/03/19 06:07:44;;;;;;;;;;;;;;;6.33;100.00;99973.53;5051673;28;20262;-73
2023/03/19 06:10:17;;;;;;;;;;;;;;;6.36;100.00;99972.47;5066699;28;19916;-71
2023/03/19 06:12:44;;;;;;;;;;;;;;;6.42;100.00;99982.53;5060875;28;19982;-73
2023/03/19 06:15:34;;;;;;;;;;;;;;;6.49;100.00;99983.78;5050840;28;19917;-71
2023/03/19 06:18:10;;;;;;;;;;;;;;;6.52;100.00;99983.56;5050942;28;19967;-73
2023/03/19 06:20:35;;;;;;;;;;;;;;;6.36;100.00;99982.97;5051036;28;19979;-72
2023/03/19 06:23:01;;;;;;;;;;;;;;;6.35;100.00;99991.78;5051467;28;19920;-73
2023/03/19 06:25:27;;;;;;;;;;;;;;;6.30;100.00;99988.63;5051468;28;19952;-72
2023/03/19 06:27:52;;;;;;;;;;;;;;;6.11;100.00;99989.88;5049795;28;19925;-72
2023/03/19 06:30:27;;;;;;;;;;;;;;;6.18;100.00;100001.59;5046787;28;19924;-72
2023/03/19 06:32:56;;;;;;;;;;;;;;;6.31;100.00;100000.75;5050113;28;19917;-72
2023/03/19 06:35:22;;;;;;;;;;;;;;;6.25;100.00;99998.56;5050299;28;20320;-72
2023/03/19 06:37:48;;;;;;;;;;;;;;;6.24;100.00;100002.16;5049613;28;20438;-71
2023/03/19 06:40:13;;;;;;;;;;;;;;;6.31;100.00;100006.00;5051740;28;19948;-72
2023/03/19 06:42:39;;;;;;;;;;;;;;;6.37;100.00;100008.22;5051088;28;19916;-73
2023/03/19 06:45:06;;;;;;;;;;;;;;;6.44;100.00;100012.09;5049749;28;19927;-72
2023/03/19 06:47:32;;;;;;;;;;;;;;;6.57;100.00;100019.03;5047257;28;19930;-72
2023/03/19 06:49:58;;;;;;;;;;;;;;;6.70;100.00;100019.00;5051281;28;19924;-72
2023/03/19 06:52:24;;;;;;;;;;;;;;;6.83;100.00;100014.56;5051092;28;20431;-72
2023/03/19 06:54:49;;;;;;;;;;;;;;;6.79;100.00;100013.09;5050242;28;20027;-72
2023/03/19 06:57:15;;;;;;;;;;;;;;;6.79;100.00;100015.72;5050081;28;19916;-73
2023/03/19 06:59:41;;;;;;;;;;;;;;;6.88;100.00;100019.50;5051535;28;19952;-72
2023/03/19 07:02:08;;;;;;;;;;;;;;;6.92;100.00;100019.16;5050954;28;19925;-73
2023/03/19 07:04:34;;;;;;;;;;;;;;;7.03;100.00;100025.44;5050252;28;19917;-73
2023/03/19 07:07:01;;;;;;;;;;;;;;;7.03;100.00;100022.81;5048434;28;19969;-73
2023/03/19 07:09:26;;;;;;;;;;;;;;;7.19;100.00;100032.09;5050969;28;19917;-72
2023/03/19 07:11:52;;;;;;;;;;;;;;;7.16;100.00;100036.75;5049382;28;19973;-71
2023/03/19 07:14:17;;;;;;;;;;;;;;;7.10;100.00;100038.03;5082996;28;19927;-72
2023/03/19 07:16:43;;;;;;;;;;;;;;;7.02;100.00;100035.09;5089261;28;19923;-72
2023/03/19 07:19:08;;;;;;;;;;;;;;;7.17;100.00;100039.28;5071378;28;19916;-73
2023/03/19 07:21:33;;;;;;;;;;;;;;;7.23;100.00;100038.00;5088296;28;19916;-72
2023/03/19 07:23:59;;;;;;;;;;;;;;;7.29;100.00;100042.81;5088974;28;19978;-73
2023/03/19 07:26:25;;;;;;;;;;;;;;;7.28;100.00;100041.13;5086777;28;19925;-71
2023/03/19 07:28:50;;;;;;;;;;;;;;;7.24;100.00;100050.19;5087142;28;19990;-72
2023/03/19 07:31:17;;;;;;;;;;;;;;;7.35;100.00;100050.25;5064474;28;20377;-71
2023/03/19 07:33:42;;;;;;;;;;;;;;;7.40;100.00;100061.25;5089112;28;19923;-73
2023/03/19 07:36:08;;;;;;;;;;;;;;;7.57;100.00;100066.13;5088525;28;19924;-71
2023/03/19 07:38:33;;;;;;;;;;;;;;;7.70;100.00;100059.03;5085118;28;19967;-73
2023/03/19 07:40:59;;;;;;;;;;;;;;;7.83;100.00;100067.66;5086159;28;19942;-73
2023/03/19 07:43:24;;;;;;;;;;;;;;;7.95;100.00;100073.00;5085824;28;19926;-72
2023/03/19 07:45:50;;;;;;;;;;;;;;;7.89;100.00;100065.56;5086985;28;19998;-71
2023/03/19 07:48:16;;;;;;;;;;;;;;;8.01;100.00;100077.78;5084208;28;20006;-72
2023/03/19 07:50:41;;;;;;;;;;;;;;;8.08;100.00;100079.00;5084865;28;19942;-72
2023/03/19 07:53:07;;;;;;;;;;;;;;;8.30;100.00;100071.22;5086413;28;19916;-72
2023/03/19 07:55:32;;;;;;;;;;;;;;;8.40;100.00;100068.72;5089591;28;19916;-72
2023/03/19 07:57:58;;;;;;;;;;;;;;;8.40;100.00;100079.25;5082943;28;19919;-70
2023/03/19 08:00:24;;;;;;;;;;;;;;;8.59;100.00;100075.09;5083205;28;19920;-72
2023/03/19 08:02:49;;;;;;;;;;;;;;;8.72;100.00;100074.97;5062535;28;19920;-71
2023/03/19 08:05:15;;;;;;;;;;;;;;;8.88;100.00;100058.84;5085910;28;19922;-73
2023/03/19 08:07:43;;;;;;;;;;;;;;;8.99;100.00;100064.13;5066424;28;19915;-72
2023/03/19 08:10:09;;;;;;;;;;;;;;;9.00;100.00;100063.16;5085781;28;20397;-73
2023/03/19 08:12:39;;;;;;;;;;;;;;;9.21;100.00;100065.88;5063879;28;19916;-72
2023/03/19 08:15:07;;;;;;;;;;;;;;;9.37;100.00;100061.91;5088259;28;20392;-74
2023/03/19 08:17:37;;;;;;;;;;;;;;;9.55;100.00;100059.59;5084484;28;20408;-73
2023/03/19 08:20:10;;;;;;;;;;;;;;;9.76;100.00;100057.03;5082508;28;19920;-74
2023/03/19 08:22:36;;;;;;;;;;;;;;;9.92;100.00;100056.59;5078309;28;19955;-73
2023/03/19 08:25:02;;;;;;;;;;;;;;;10.08;100.00;100067.53;5085562;28;19926;-73
2023/03/19 08:27:29;;;;;;;;;;;;;;;10.26;100.00;100066.88;5096524;28;19942;-72
2023/03/19 08:29:55;;;;;;;;;;;;;;;10.47;100.00;100063.41;5089031;28;20025;-73
2023/03/19 08:32:20;;;;;;;;;;;;;;;10.70;100.00;100059.66;5088749;28;20015;-72
2023/03/19 08:34:45;;;;;;;;;;;;;;;10.90;100.00;100061.41;5088827;28;19916;-73
2023/03/19 08:37:11;;;;;;;;;;;;;;;11.02;100.00;100065.63;5088948;28;19916;-72
2023/03/19 08:39:36;;;;;;;;;;;;;;;11.06;100.00;100067.03;5085848;28;19919;-74
2023/03/19 08:42:02;;;;;;;;;;;;;;;11.05;100.00;100065.38;5083383;28;19923;-72
2023/03/19 08:44:27;;;;;;;;;;;;;;;11.04;100.00;100063.69;5062178;28;19916;-72
2023/03/19 08:46:53;;;;;;;;;;;;;;;11.05;100.00;100068.00;5064712;28;20010;-73
2023/03/19 08:49:18;;;;;;;;;;;;;;;11.03;100.00;100067.28;5089207;28;20026;-73
2023/03/19 08:51:44;;;;;;;;;;;;;;;11.08;100.00;100075.66;5085376;28;19919;-73
2023/03/19 08:54:10;;;;;;;;;;;;;;;11.18;100.00;100075.72;5086557;28;20003;-72
2023/03/19 08:56:35;;;;;;;;;;;;;;;11.33;100.00;100079.63;5081780;28;19916;-73
2023/03/19 08:59:01;;;;;;;;;;;;;;;11.49;100.00;100073.81;5082219;28;19916;-73
2023/03/19 09:01:26;;;;;;;;;;;;;;;11.50;100.00;100075.50;5082380;28;19959;-74
2023/03/19 09:03:52;;;;;;;;;;;;;;;11.52;100.00;100073.56;5084363;28;19916;-73
2023/03/19 09:06:17;;;;;;;;;;;;;;;11.66;100.00;100075.84;5083636;28;19920;-74
2023/03/19 09:08:43;;;;;;;;;;;;;;;11.71;100.00;100078.91;5065387;28;19917;-72
2023/03/19 09:11:09;;;;;;;;;;;;;;;11.78;100.00;100074.72;5085051;28;19920;-73
2023/03/19 09:13:36;;;;;;;;;;;;;;;11.80;100.00;100080.72;5084168;28;19920;-74
2023/03/19 09:16:01;;;;;;;;;;;;;;;11.83;100.00;100072.53;5086972;28;20281;-72
2023/03/19 09:18:27;;;;;;;;;;;;;;;11.76;100.00;100074.06;5081787;28;19967;-74
2023/03/19 09:20:53;;;;;;;;;;;;;;;11.88;100.00;100078.25;5062729;28;19923;-73
2023/03/19 09:23:19;;;;;;;;;;;;;;;11.86;100.00;100082.00;5092465;28;19916;-75
2023/03/19 09:25:45;;;;;;;;;;;;;;;11.85;100.00;100070.56;5092700;28;19923;-74
2023/03/19 09:28:11;;;;;;;;;;;;;;;11.89;100.00;100076.44;5069979;28;19920;-74
2023/03/19 09:30:37;;;;;;;;;;;;;;;11.99;100.00;100079.06;5086718;28;20327;-77
2023/03/19 09:33:03;;;;;;;;;;;;;;;11.99;100.00;100076.44;5087979;28;19957;-76
2023/03/19 09:35:30;;;;;;;;;;;;;;;12.07;100.00;100076.59;5085216;28;19924;-75
2023/03/19 09:37:56;;;;;;;;;;;;;;;12.08;100.00;100075.56;5085587;28;19969;-76
2023/03/19 09:40:25;;;;;;;;;;;;;;;12.17;100.00;100077.41;5084063;28;19923;-75
2023/03/19 09:43:10;;;;;;;;;;;;;;;12.09;100.00;100077.25;5088587;28;19957;-76
2023/03/19 09:45:35;;;;;;;;;;;;;;;12.08;100.00;100076.41;5065814;28;19923;-75
2023/03/19 09:48:05;;;;;;;;;;;;;;;12.23;100.00;100079.50;5069824;28;19916;-73
2023/03/19 09:50:33;;;;;;;;;;;;;;;12.30;100.00;100077.97;5084852;28;19959;-75
2023/03/19 09:53:11;;;;;;;;;;;;;;;12.36;100.00;100074.75;5088551;28;19916;-75
2023/03/19 09:55:39;;;;;;;;;;;;;;;12.46;100.00;100070.25;5086898;28;19961;-74
2023/03/19 09:58:16;;;;;;;;;;;;;;;12.54;100.00;100067.75;5087368;28;19920;-74
2023/03/19 10:00:41;;;;;;;;;;;;;;;12.66;100.00;100071.88;5087398;28;19919;-74
2023/03/19 10:03:25;;;;;;;;;;;;;;;12.76;100.00;100071.03;5087527;28;19920;-75
2023/03/19 10:05:57;;;;;;;;;;;;;;;12.92;100.00;100069.44;5086417;28;20236;-74
2023/03/19 10:08:22;;;;;;;;;;;;;;;13.03;100.00;100057.81;5087227;28;19916;-73
2023/03/19 10:11:01;;;;;;;;;;;;;;;13.06;100.00;100060.19;5089716;28;19912;-72
2023/03/19 10:13:27;;;;;;;;;;;;;;;13.05;100.00;100061.16;5087612;28;19916;-73
2023/03/19 10:15:52;;;;;;;;;;;;;;;13.07;100.00;100061.84;5083728;28;19926;-72
2023/03/19 10:18:18;;;;;;;;;;;;;;;13.14;100.00;100065.59;5086102;28;20072;-73
2023/03/19 10:21:04;;;;;;;;;;;;;;;13.28;100.00;100049.22;5084831;28;20061;-74
2023/03/19 10:23:43;;;;;;;;;;;;;;;13.45;100.00;100056.38;5084413;28;20383;-72
2023/03/19 10:26:14;;;;;;;;;;;;;;;13.64;100.00;100051.94;5085140;28;20413;-71
2023/03/19 10:28:45;;;;;;;;;;;;;;;13.76;99.53;100042.78;5083660;28;19916;-71
2023/03/19 10:31:17;;;;;;;;;;;;;;;13.83;97.67;100043.84;5082508;28;19915;-72
2023/03/19 10:33:44;;;;;;;;;;;;;;;14.00;97.59;100034.19;5083206;28;19932;-74
2023/03/19 10:36:11;;;;;;;;;;;;;;;14.04;95.09;100039.03;5086247;28;20405;-73
2023/03/19 10:38:40;;;;;;;;;;;;;;;14.09;95.17;100035.91;5080280;28;19922;-73
2023/03/19 10:41:25;;;;;;;;;;;;;;;14.24;95.14;100040.53;5084268;28;19924;-74
2023/03/19 10:43:57;;;;;;;;;;;;;;;14.47;95.15;100037.41;5086416;28;19916;-74
2023/03/19 10:46:23;;;;;;;;;;;;;;;14.62;94.00;100031.34;5084098;28;20003;-74
2023/03/19 10:48:48;;;;;;;;;;;;;;;14.71;93.44;100032.25;5074413;28;20007;-73
2023/03/19 10:51:15;;;;;;;;;;;;;;;14.76;92.31;100035.25;5093778;28;19915;-73
2023/03/19 10:53:41;;;;;;;;;;;;;;;14.72;91.36;100023.31;5091851;28;20253;-73
2023/03/19 10:56:06;;;;;;;;;;;;;;;14.81;91.37;100026.81;5095529;28;19931;-74
2023/03/19 10:58:33;;;;;;;;;;;;;;;14.83;90.75;100020.38;5096050;28;19916;-74
2023/03/19 11:01:10;;;;;;;;;;;;;;;14.87;90.22;100021.72;5091061;28;19923;-74
2023/03/19 11:03:37;;;;;;;;;;;;;;;14.88;89.78;100011.91;5090945;28;19966;-71
2023/03/19 11:06:16;;;;;;;;;;;;;;;14.92;89.39;100010.59;5090162;28;19977;-72
2023/03/19 11:08:41;;;;;;;;;;;;;;;14.65;90.29;100007.16;5088497;28;19927;-72
2023/03/19 11:11:21;;;;;;;;;;;;;;;14.57;90.78;99999.13;5087969;28;19924;-74
2023/03/19 11:13:46;;;;;;;;;;;;;;;14.64;90.90;100004.66;5090848;28;19916;-72
2023/03/19 11:16:12;;;;;;;;;;;;;;;14.76;91.03;100011.34;5086261;28;19922;-74
2023/03/19 11:18:38;;;;;;;;;;;;;;;14.87;90.25;99994.31;5087618;28;19924;-70
2023/03/19 11:21:26;;;;;;;;;;;;;;;14.97;89.89;99993.19;5083888;28;19916;-71
2023/03/19 11:23:57;;;;;;;;;;;;;;;15.07;89.37;99996.56;5078577;28;19923;-72
2023/03/19 11:26:27;;;;;;;;;;;;;;;15.12;87.79;100001.38;5086373;28;19951;-74
2023/03/19 11:28:54;;;;;;;;;;;;;;;15.11;87.18;99986.44;5086244;28;19916;-73
2023/03/19 11:31:27;;;;;;;;;;;;;;;15.20;87.45;99992.63;5086000;28;20407;-73
2023/03/19 11:33:53;;;;;;;;;;;;;;;15.24;86.98;99981.50;5086400;28;19970;-73
2023/03/19 11:36:22;;;;;;;;;;;;;;;15.37;86.88;99981.03;5070056;28;19916;-72
2023/03/19 11:38:49;;;;;;;;;;;;;;;15.40;86.78;99980.69;5092596;28;19916;-73
2023/03/19 11:41:16;;;;;;;;;;;;;;;15.41;85.43;99979.69;5067774;28;19916;-74
2023/03/19 11:43:47;;;;;;;;;;;;;;;15.35;85.90;99969.72;5084560;28;19917;-72
2023/03/19 11:46:13;;;;;;;;;;;;;;;15.26;85.90;99978.63;5086172;28;19977;-72
2023/03/19 11:48:57;;;;;;;;;;;;;;;15.34;86.22;99965.38;5083752;28;19916;-71
2023/03/19 11:51:36;;;;;;;;;;;;;;;15.37;85.83;99965.91;5080279;28;19916;-73
2023/03/19 11:54:04;;;;;;;;;;;;;;;15.32;85.86;99956.72;5086972;28;19916;-72
2023/03/19 11:56:35;;;;;;;;;;;;;;;15.37;85.96;99955.25;5083706;28;20327;-72
2023/03/19 11:59:04;;;;;;;;;;;;;;;15.31;85.30;99955.09;5079758;28;19925;-72
2023/03/19 12:01:45;;;;;;;;;;;;;;;15.40;84.99;99948.78;5079605;28;19927;-72
2023/03/19 12:04:26;;;;;;;;;;;;;;;15.53;84.51;99946.50;5078656;28;20022;-71
2023/03/19 12:07:07;;;;;;;;;;;;;;;15.72;84.10;99938.19;5081482;28;19924;-72
2023/03/19 12:09:51;;;;;;;;;;;;;;;15.81;83.31;99937.19;5079968;28;20430;-71
2023/03/19 12:12:39;;;;;;;;;;;;;;;15.90;82.47;99933.50;5076528;28;19916;-72
2023/03/19 12:15:25;;;;;;;;;;;;;;;15.89;81.93;99934.53;5071608;28;20257;-72
2023/03/19 12:17:53;;;;;;;;;;;;;;;15.97;82.76;99926.53;5081175;28;20010;-72
2023/03/19 12:20:25;;;;;;;;;;;;;;;16.10;81.83;99925.19;5085000;28;19920;-72
2023/03/19 12:22:58;;;;;;;;;;;;;;;16.22;81.55;99918.50;5082326;28;19920;-73
2023/03/19 12:25:27;;;;;;;;;;;;;;;16.20;80.48;99923.19;5078936;28;19947;-72
2023/03/19 12:27:56;;;;;;;;;;;;;;;16.30;80.27;99926.47;5082684;28;19967;-73
2023/03/19 12:30:31;;;;;;;;;;;;;;;16.33;80.40;99918.97;5080010;28;19916;-71
2023/03/19 12:33:07;;;;;;;;;;;;;;;16.30;80.04;99915.81;5085386;28;20288;-72
2023/03/19 12:35:34;;;;;;;;;;;;;;;16.18;79.58;99919.84;5089657;28;19916;-72
2023/03/19 12:38:35;;;;;;;;;;;;;;;15.74;78.78;99917.56;5079512;28;19984;-72
2023/03/19 12:41:04;;;;;;;;;;;;;;;15.55;80.12;99920.56;5024526;28;20372;-72
2023/03/19 12:43:34;;;;;;;;;;;;;;;15.59;79.18;99911.25;5021476;28;19965;-72
2023/03/19 12:46:05;;;;;;;;;;;;;;;15.62;78.45;99910.91;5019278;28;20599;-71
2023/03/19 12:48:36;;;;;;;;;;;;;;;15.77;78.93;99913.75;5021149;28;19978;-73